sensor_id;sensor_type;location;lat;lon;timestamp;P1;durP1;ratioP1;P2;durP2;ratioP2
48849;SDS011;63210;53.370;6.770;2023-03-01T00:01:06;14.68;;;9.63;;
48849;SDS011;63210;53.370;6.770;2023-03-01T00:03:31;21.05;;;12.00;;
48849;SDS011;63210;53.370;6.770;2023-03-01T00:05:57;15.90;;;9.80;;
48849;SDS011;63210;53.370;6.770;2023-03-01T00:08:23;19.48;;;9.85;;
48849;SDS011;63210;53.370;6.770;2023-03-01T00:10:48;14.73;;;9.43;;
48849;SDS011;63210;53.370;6.770;2023-03-01T00:13:13;15.75;;;10.85;;
48849;SDS011;63210;53.370;6.770;2023-03-01T00:15:42;15.90;;;10.98;;
48849;SDS011;63210;53.370;6.770;2023-03-01T00:18:10;15.45;;;10.85;;
48849;SDS011;63210;53.370;6.770;2023-03-01T00:20:51;15.32;;;10.00;;
48849;SDS011;63210;53.370;6.770;2023-03-01T00:23:20;15.23;;;9.05;;
48849;SDS011;63210;53.370;6.770;2023-03-01T00:25:50;12.15;;;8.20;;
48849;SDS011;63210;53.370;6.770;2023-03-01T00:28:16;16.10;;;10.65;;
48849;SDS011;63210;53.370;6.770;2023-03-01T00:30:41;16.50;;;10.77;;
48849;SDS011;63210;53.370;6.770;2023-03-01T00:33:09;15.88;;;10.27;;
48849;SDS011;63210;53.370;6.770;2023-03-01T00:35:40;16.80;;;10.15;;
48849;SDS011;63210;53.370;6.770;2023-03-01T00:40:34;12.80;;;9.23;;
48849;SDS011;63210;53.370;6.770;2023-03-01T00:43:00;12.65;;;8.85;;
48849;SDS011;63210;53.370;6.770;2023-03-01T00:45:29;14.02;;;8.98;;
48849;SDS011;63210;53.370;6.770;2023-03-01T00:48:01;12.90;;;8.50;;
48849;SDS011;63210;53.370;6.770;2023-03-01T00:50:29;12.68;;;7.95;;
48849;SDS011;63210;53.370;6.770;2023-03-01T00:52:55;16.05;;;8.95;;
48849;SDS011;63210;53.370;6.770;2023-03-01T00:55:20;17.45;;;9.48;;
48849;SDS011;63210;53.370;6.770;2023-03-01T00:57:48;19.17;;;10.75;;
48849;SDS011;63210;53.370;6.770;2023-03-01T01:00:18;17.88;;;11.00;;
48849;SDS011;63210;53.370;6.770;2023-03-01T01:02:52;17.83;;;10.07;;
48849;SDS011;63210;53.370;6.770;2023-03-01T01:05:19;17.45;;;10.73;;
48849;SDS011;63210;53.370;6.770;2023-03-01T01:07:46;13.63;;;9.73;;
48849;SDS011;63210;53.370;6.770;2023-03-01T01:10:17;14.48;;;9.18;;
48849;SDS011;63210;53.370;6.770;2023-03-01T01:15:13;15.75;;;9.00;;
48849;SDS011;63210;53.370;6.770;2023-03-01T01:17:42;13.45;;;9.48;;
48849;SDS011;63210;53.370;6.770;2023-03-01T01:20:11;16.58;;;10.40;;
48849;SDS011;63210;53.370;6.770;2023-03-01T01:22:39;14.90;;;10.02;;
48849;SDS011;63210;53.370;6.770;2023-03-01T01:25:06;13.25;;;8.80;;
48849;SDS011;63210;53.370;6.770;2023-03-01T01:27:31;10.07;;;8.07;;
48849;SDS011;63210;53.370;6.770;2023-03-01T01:29:59;11.68;;;8.15;;
48849;SDS011;63210;53.370;6.770;2023-03-01T01:32:24;9.02;;;7.20;;
48849;SDS011;63210;53.370;6.770;2023-03-01T01:34:50;7.15;;;6.40;;
48849;SDS011;63210;53.370;6.770;2023-03-01T01:37:17;6.60;;;5.90;;
48849;SDS011;63210;53.370;6.770;2023-03-01T01:39:45;6.60;;;5.82;;
48849;SDS011;63210;53.370;6.770;2023-03-01T01:42:15;12.05;;;6.35;;
48849;SDS011;63210;53.370;6.770;2023-03-01T01:44:42;7.13;;;5.75;;
48849;SDS011;63210;53.370;6.770;2023-03-01T01:47:17;7.10;;;5.53;;
48849;SDS011;63210;53.370;6.770;2023-03-01T01:50:09;7.53;;;6.38;;
48849;SDS011;63210;53.370;6.770;2023-03-01T01:52:39;8.77;;;7.13;;
48849;SDS011;63210;53.370;6.770;2023-03-01T01:55:14;9.82;;;7.63;;
48849;SDS011;63210;53.370;6.770;2023-03-01T01:57:41;9.38;;;7.32;;
48849;SDS011;63210;53.370;6.770;2023-03-01T02:00:15;12.77;;;6.90;;
48849;SDS011;63210;53.370;6.770;2023-03-01T02:02:41;6.07;;;5.05;;
48849;SDS011;63210;53.370;6.770;2023-03-01T02:07:52;5.65;;;5.00;;
48849;SDS011;63210;53.370;6.770;2023-03-01T02:10:17;8.23;;;6.53;;
48849;SDS011;63210;53.370;6.770;2023-03-01T02:12:45;7.78;;;6.50;;
48849;SDS011;63210;53.370;6.770;2023-03-01T02:15:11;8.00;;;5.82;;
48849;SDS011;63210;53.370;6.770;2023-03-01T02:17:45;6.47;;;5.68;;
48849;SDS011;63210;53.370;6.770;2023-03-01T02:20:20;17.13;;;6.30;;
48849;SDS011;63210;53.370;6.770;2023-03-01T02:23:08;85.10;;;6.97;;
48849;SDS011;63210;53.370;6.770;2023-03-01T02:30:30;22.95;;;6.25;;
48849;SDS011;63210;53.370;6.770;2023-03-01T02:32:56;12.90;;;6.10;;
48849;SDS011;63210;53.370;6.770;2023-03-01T02:37:52;26.73;;;6.80;;
48849;SDS011;63210;53.370;6.770;2023-03-01T02:40:22;15.05;;;5.93;;
48849;SDS011;63210;53.370;6.770;2023-03-01T02:42:51;120.97;;;8.30;;
48849;SDS011;63210;53.370;6.770;2023-03-01T02:45:27;52.75;;;7.00;;
48849;SDS011;63210;53.370;6.770;2023-03-01T02:47:55;10.13;;;6.80;;
48849;SDS011;63210;53.370;6.770;2023-03-01T02:53:10;10.07;;;7.40;;
48849;SDS011;63210;53.370;6.770;2023-03-01T02:55:38;10.52;;;7.80;;
48849;SDS011;63210;53.370;6.770;2023-03-01T02:58:03;15.30;;;6.65;;
48849;SDS011;63210;53.370;6.770;2023-03-01T03:00:33;9.88;;;7.15;;
48849;SDS011;63210;53.370;6.770;2023-03-01T03:05:27;8.13;;;6.63;;
48849;SDS011;63210;53.370;6.770;2023-03-01T03:08:00;9.65;;;6.75;;
48849;SDS011;63210;53.370;6.770;2023-03-01T03:10:26;9.25;;;7.20;;
48849;SDS011;63210;53.370;6.770;2023-03-01T03:12:57;18.90;;;7.22;;
48849;SDS011;63210;53.370;6.770;2023-03-01T03:15:23;7.63;;;6.43;;
48849;SDS011;63210;53.370;6.770;2023-03-01T03:17:49;9.35;;;6.07;;
48849;SDS011;63210;53.370;6.770;2023-03-01T03:20:16;7.88;;;6.53;;
48849;SDS011;63210;53.370;6.770;2023-03-01T03:22:50;7.53;;;6.63;;
48849;SDS011;63210;53.370;6.770;2023-03-01T03:25:25;8.50;;;6.55;;
48849;SDS011;63210;53.370;6.770;2023-03-01T03:27:54;7.90;;;6.80;;
48849;SDS011;63210;53.370;6.770;2023-03-01T03:30:29;53.03;;;7.13;;
48849;SDS011;63210;53.370;6.770;2023-03-01T03:32:55;19.33;;;6.70;;
48849;SDS011;63210;53.370;6.770;2023-03-01T03:35:31;6.30;;;5.70;;
48849;SDS011;63210;53.370;6.770;2023-03-01T03:38:03;7.43;;;6.20;;
48849;SDS011;63210;53.370;6.770;2023-03-01T03:40:48;8.38;;;6.57;;
48849;SDS011;63210;53.370;6.770;2023-03-01T03:43:17;6.78;;;6.00;;
48849;SDS011;63210;53.370;6.770;2023-03-01T03:45:49;49.97;;;6.72;;
48849;SDS011;63210;53.370;6.770;2023-03-01T03:48:27;14.75;;;6.00;;
48849;SDS011;63210;53.370;6.770;2023-03-01T03:51:06;7.78;;;5.95;;
48849;SDS011;63210;53.370;6.770;2023-03-01T03:53:38;7.55;;;5.82;;
48849;SDS011;63210;53.370;6.770;2023-03-01T03:56:03;5.85;;;5.25;;
48849;SDS011;63210;53.370;6.770;2023-03-01T03:58:31;7.05;;;6.10;;
48849;SDS011;63210;53.370;6.770;2023-03-01T04:01:03;7.78;;;6.10;;
48849;SDS011;63210;53.370;6.770;2023-03-01T04:03:28;8.43;;;6.65;;
48849;SDS011;63210;53.370;6.770;2023-03-01T04:05:56;29.00;;;6.32;;
48849;SDS011;63210;53.370;6.770;2023-03-01T04:08:22;7.10;;;5.30;;
48849;SDS011;63210;53.370;6.770;2023-03-01T04:10:51;7.10;;;5.88;;
48849;SDS011;63210;53.370;6.770;2023-03-01T04:13:23;10.60;;;5.72;;
48849;SDS011;63210;53.370;6.770;2023-03-01T04:15:53;7.60;;;6.35;;
48849;SDS011;63210;53.370;6.770;2023-03-01T04:18:19;16.52;;;5.93;;
48849;SDS011;63210;53.370;6.770;2023-03-01T04:20:54;9.00;;;6.30;;
48849;SDS011;63210;53.370;6.770;2023-03-01T04:23:23;13.35;;;6.82;;
48849;SDS011;63210;53.370;6.770;2023-03-01T04:25:49;13.98;;;6.38;;
48849;SDS011;63210;53.370;6.770;2023-03-01T04:28:21;12.50;;;6.93;;
48849;SDS011;63210;53.370;6.770;2023-03-01T04:30:57;19.55;;;6.72;;
48849;SDS011;63210;53.370;6.770;2023-03-01T04:33:29;11.85;;;7.25;;
48849;SDS011;63210;53.370;6.770;2023-03-01T04:36:10;17.40;;;6.65;;
48849;SDS011;63210;53.370;6.770;2023-03-01T04:39:02;12.98;;;7.07;;
48849;SDS011;63210;53.370;6.770;2023-03-01T04:41:40;8.63;;;6.88;;
48849;SDS011;63210;53.370;6.770;2023-03-01T04:44:47;12.32;;;8.38;;
48849;SDS011;63210;53.370;6.770;2023-03-01T04:47:21;22.88;;;6.90;;
48849;SDS011;63210;53.370;6.770;2023-03-01T04:49:49;10.68;;;7.53;;
48849;SDS011;63210;53.370;6.770;2023-03-01T04:52:20;9.27;;;7.07;;
48849;SDS011;63210;53.370;6.770;2023-03-01T04:54:54;9.70;;;6.70;;
48849;SDS011;63210;53.370;6.770;2023-03-01T04:57:22;9.32;;;6.95;;
48849;SDS011;63210;53.370;6.770;2023-03-01T04:59:56;10.27;;;6.85;;
48849;SDS011;63210;53.370;6.770;2023-03-01T05:02:28;8.77;;;6.70;;
48849;SDS011;63210;53.370;6.770;2023-03-01T05:05:06;8.55;;;6.55;;
48849;SDS011;63210;53.370;6.770;2023-03-01T05:07:44;7.72;;;6.45;;
48849;SDS011;63210;53.370;6.770;2023-03-01T05:10:15;6.43;;;5.70;;
48849;SDS011;63210;53.370;6.770;2023-03-01T05:12:40;7.90;;;6.00;;
48849;SDS011;63210;53.370;6.770;2023-03-01T05:15:06;8.65;;;6.80;;
48849;SDS011;63210;53.370;6.770;2023-03-01T05:17:40;8.85;;;6.50;;
48849;SDS011;63210;53.370;6.770;2023-03-01T05:20:10;8.10;;;6.35;;
48849;SDS011;63210;53.370;6.770;2023-03-01T05:22:39;8.25;;;6.53;;
48849;SDS011;63210;53.370;6.770;2023-03-01T05:25:05;7.75;;;6.38;;
48849;SDS011;63210;53.370;6.770;2023-03-01T05:27:40;6.90;;;6.00;;
48849;SDS011;63210;53.370;6.770;2023-03-01T05:30:08;7.60;;;6.05;;
48849;SDS011;63210;53.370;6.770;2023-03-01T05:32:46;7.72;;;6.32;;
48849;SDS011;63210;53.370;6.770;2023-03-01T05:35:13;8.00;;;6.68;;
48849;SDS011;63210;53.370;6.770;2023-03-01T05:37:42;9.27;;;6.93;;
48849;SDS011;63210;53.370;6.770;2023-03-01T05:40:20;7.50;;;6.25;;
48849;SDS011;63210;53.370;6.770;2023-03-01T05:42:48;8.48;;;6.18;;
48849;SDS011;63210;53.370;6.770;2023-03-01T05:50:43;7.90;;;6.13;;
48849;SDS011;63210;53.370;6.770;2023-03-01T05:53:16;7.72;;;6.03;;
48849;SDS011;63210;53.370;6.770;2023-03-01T05:55:47;7.90;;;6.10;;
48849;SDS011;63210;53.370;6.770;2023-03-01T05:58:29;8.80;;;6.88;;
48849;SDS011;63210;53.370;6.770;2023-03-01T06:00:54;9.98;;;7.10;;
48849;SDS011;63210;53.370;6.770;2023-03-01T06:03:20;9.57;;;7.00;;
48849;SDS011;63210;53.370;6.770;2023-03-01T06:05:48;8.85;;;6.32;;
48849;SDS011;63210;53.370;6.770;2023-03-01T06:08:16;10.05;;;6.78;;
48849;SDS011;63210;53.370;6.770;2023-03-01T06:10:45;7.63;;;6.32;;
48849;SDS011;63210;53.370;6.770;2023-03-01T06:13:12;8.20;;;5.78;;
48849;SDS011;63210;53.370;6.770;2023-03-01T06:15:48;8.00;;;6.43;;
48849;SDS011;63210;53.370;6.770;2023-03-01T06:18:13;7.88;;;6.30;;
48849;SDS011;63210;53.370;6.770;2023-03-01T06:20:41;8.38;;;7.03;;
48849;SDS011;63210;53.370;6.770;2023-03-01T06:23:09;12.60;;;8.82;;
48849;SDS011;63210;53.370;6.770;2023-03-01T06:25:41;9.40;;;7.13;;
48849;SDS011;63210;53.370;6.770;2023-03-01T06:28:09;12.68;;;7.60;;
48849;SDS011;63210;53.370;6.770;2023-03-01T06:30:43;11.80;;;8.43;;
48849;SDS011;63210;53.370;6.770;2023-03-01T06:33:13;10.85;;;7.40;;
48849;SDS011;63210;53.370;6.770;2023-03-01T06:35:42;12.68;;;8.10;;
48849;SDS011;63210;53.370;6.770;2023-03-01T06:38:12;12.48;;;7.80;;
48849;SDS011;63210;53.370;6.770;2023-03-01T06:40:40;9.80;;;7.30;;
48849;SDS011;63210;53.370;6.770;2023-03-01T06:43:08;11.48;;;7.75;;
48849;SDS011;63210;53.370;6.770;2023-03-01T06:45:33;12.88;;;8.30;;
48849;SDS011;63210;53.370;6.770;2023-03-01T06:48:05;17.17;;;12.18;;
48849;SDS011;63210;53.370;6.770;2023-03-01T06:50:35;20.00;;;11.77;;
48849;SDS011;63210;53.370;6.770;2023-03-01T06:53:00;15.38;;;9.85;;
48849;SDS011;63210;53.370;6.770;2023-03-01T06:55:26;11.10;;;8.68;;
48849;SDS011;63210;53.370;6.770;2023-03-01T06:57:58;15.35;;;8.45;;
48849;SDS011;63210;53.370;6.770;2023-03-01T07:03:01;11.88;;;8.88;;
48849;SDS011;63210;53.370;6.770;2023-03-01T07:05:55;13.75;;;9.35;;
48849;SDS011;63210;53.370;6.770;2023-03-01T07:08:21;10.63;;;7.68;;
48849;SDS011;63210;53.370;6.770;2023-03-01T07:10:54;15.50;;;8.63;;
48849;SDS011;63210;53.370;6.770;2023-03-01T07:13:20;16.58;;;9.82;;
48849;SDS011;63210;53.370;6.770;2023-03-01T07:15:51;12.55;;;8.93;;
48849;SDS011;63210;53.370;6.770;2023-03-01T07:18:23;14.13;;;9.15;;
48849;SDS011;63210;53.370;6.770;2023-03-01T07:20:51;11.07;;;8.13;;
48849;SDS011;63210;53.370;6.770;2023-03-01T07:23:17;13.23;;;8.30;;
48849;SDS011;63210;53.370;6.770;2023-03-01T07:25:42;12.00;;;8.15;;
48849;SDS011;63210;53.370;6.770;2023-03-01T07:28:10;16.50;;;9.10;;
48849;SDS011;63210;53.370;6.770;2023-03-01T07:30:38;14.80;;;10.23;;
48849;SDS011;63210;53.370;6.770;2023-03-01T07:33:06;13.77;;;8.73;;
48849;SDS011;63210;53.370;6.770;2023-03-01T07:35:32;14.23;;;9.63;;
48849;SDS011;63210;53.370;6.770;2023-03-01T07:37:58;12.05;;;8.80;;
48849;SDS011;63210;53.370;6.770;2023-03-01T07:40:32;16.50;;;9.32;;
48849;SDS011;63210;53.370;6.770;2023-03-01T07:42:57;18.58;;;12.82;;
48849;SDS011;63210;53.370;6.770;2023-03-01T07:45:35;22.35;;;17.98;;
48849;SDS011;63210;53.370;6.770;2023-03-01T07:48:00;18.77;;;12.10;;
48849;SDS011;63210;53.370;6.770;2023-03-01T07:50:26;19.05;;;12.45;;
48849;SDS011;63210;53.370;6.770;2023-03-01T07:52:51;20.27;;;11.95;;
48849;SDS011;63210;53.370;6.770;2023-03-01T07:55:16;15.05;;;11.10;;
48849;SDS011;63210;53.370;6.770;2023-03-01T07:57:42;15.38;;;10.02;;
48849;SDS011;63210;53.370;6.770;2023-03-01T08:00:22;14.77;;;9.70;;
48849;SDS011;63210;53.370;6.770;2023-03-01T08:02:47;20.98;;;12.20;;
48849;SDS011;63210;53.370;6.770;2023-03-01T08:05:12;19.42;;;12.88;;
48849;SDS011;63210;53.370;6.770;2023-03-01T08:07:38;20.42;;;12.65;;
48849;SDS011;63210;53.370;6.770;2023-03-01T08:10:07;20.58;;;13.10;;
48849;SDS011;63210;53.370;6.770;2023-03-01T08:12:35;19.38;;;12.45;;
48849;SDS011;63210;53.370;6.770;2023-03-01T08:15:05;20.63;;;13.23;;
48849;SDS011;63210;53.370;6.770;2023-03-01T08:17:31;21.80;;;13.10;;
48849;SDS011;63210;53.370;6.770;2023-03-01T08:19:56;25.85;;;14.70;;
48849;SDS011;63210;53.370;6.770;2023-03-01T08:22:22;21.58;;;14.30;;
48849;SDS011;63210;53.370;6.770;2023-03-01T08:24:50;24.80;;;13.80;;
48849;SDS011;63210;53.370;6.770;2023-03-01T08:27:16;20.50;;;13.73;;
48849;SDS011;63210;53.370;6.770;2023-03-01T08:29:50;25.42;;;14.50;;
48849;SDS011;63210;53.370;6.770;2023-03-01T08:32:15;27.15;;;15.63;;
48849;SDS011;63210;53.370;6.770;2023-03-01T08:34:41;25.58;;;16.70;;
48849;SDS011;63210;53.370;6.770;2023-03-01T08:37:07;29.85;;;16.10;;
48849;SDS011;63210;53.370;6.770;2023-03-01T08:39:32;27.42;;;16.75;;
48849;SDS011;63210;53.370;6.770;2023-03-01T08:42:06;28.00;;;16.88;;
48849;SDS011;63210;53.370;6.770;2023-03-01T08:46:56;30.02;;;17.50;;
48849;SDS011;63210;53.370;6.770;2023-03-01T08:49:22;41.38;;;22.98;;
48849;SDS011;63210;53.370;6.770;2023-03-01T08:51:48;49.92;;;27.55;;
48849;SDS011;63210;53.370;6.770;2023-03-01T08:54:16;57.47;;;29.25;;
48849;SDS011;63210;53.370;6.770;2023-03-01T08:56:43;72.43;;;34.22;;
48849;SDS011;63210;53.370;6.770;2023-03-01T08:59:09;93.80;;;40.38;;
48849;SDS011;63210;53.370;6.770;2023-03-01T09:01:37;92.78;;;40.20;;
48849;SDS011;63210;53.370;6.770;2023-03-01T09:04:03;91.38;;;43.38;;
48849;SDS011;63210;53.370;6.770;2023-03-01T09:06:38;84.63;;;38.70;;
48849;SDS011;63210;53.370;6.770;2023-03-01T09:09:04;71.70;;;35.92;;
48849;SDS011;63210;53.370;6.770;2023-03-01T09:11:36;85.28;;;41.33;;
48849;SDS011;63210;53.370;6.770;2023-03-01T09:14:04;86.70;;;42.20;;
48849;SDS011;63210;53.370;6.770;2023-03-01T09:16:30;72.00;;;37.42;;
48849;SDS011;63210;53.370;6.770;2023-03-01T09:19:03;53.40;;;29.75;;
48849;SDS011;63210;53.370;6.770;2023-03-01T09:21:38;49.88;;;29.92;;
48849;SDS011;63210;53.370;6.770;2023-03-01T09:24:32;46.55;;;28.02;;
48849;SDS011;63210;53.370;6.770;2023-03-01T09:26:58;46.15;;;27.45;;
48849;SDS011;63210;53.370;6.770;2023-03-01T09:29:27;42.67;;;24.83;;
48849;SDS011;63210;53.370;6.770;2023-03-01T09:31:56;57.03;;;24.75;;
48849;SDS011;63210;53.370;6.770;2023-03-01T09:34:40;42.20;;;25.27;;
48849;SDS011;63210;53.370;6.770;2023-03-01T09:37:33;40.50;;;22.73;;
48849;SDS011;63210;53.370;6.770;2023-03-01T09:39:59;42.30;;;25.23;;
48849;SDS011;63210;53.370;6.770;2023-03-01T09:42:27;32.40;;;20.60;;
48849;SDS011;63210;53.370;6.770;2023-03-01T09:45:11;35.58;;;22.65;;
48849;SDS011;63210;53.370;6.770;2023-03-01T09:47:40;51.13;;;31.38;;
48849;SDS011;63210;53.370;6.770;2023-03-01T09:50:16;34.60;;;20.85;;
48849;SDS011;63210;53.370;6.770;2023-03-01T09:53:07;34.95;;;20.73;;
48849;SDS011;63210;53.370;6.770;2023-03-01T10:01:13;28.80;;;18.88;;
48849;SDS011;63210;53.370;6.770;2023-03-01T10:03:44;28.77;;;19.58;;
48849;SDS011;63210;53.370;6.770;2023-03-01T10:06:20;28.00;;;19.23;;
48849;SDS011;63210;53.370;6.770;2023-03-01T10:11:36;28.52;;;19.38;;
48849;SDS011;63210;53.370;6.770;2023-03-01T10:21:41;28.13;;;18.35;;
48849;SDS011;63210;53.370;6.770;2023-03-01T10:24:17;25.55;;;17.52;;
48849;SDS011;63210;53.370;6.770;2023-03-01T10:26:54;22.88;;;15.88;;
48849;SDS011;63210;53.370;6.770;2023-03-01T10:29:34;28.17;;;17.50;;
48849;SDS011;63210;53.370;6.770;2023-03-01T10:32:02;25.70;;;15.93;;
48849;SDS011;63210;53.370;6.770;2023-03-01T10:34:36;23.63;;;16.27;;
48849;SDS011;63210;53.370;6.770;2023-03-01T10:37:10;22.95;;;15.18;;
48849;SDS011;63210;53.370;6.770;2023-03-01T10:42:33;20.63;;;14.55;;
48849;SDS011;63210;53.370;6.770;2023-03-01T10:47:44;17.27;;;13.43;;
48849;SDS011;63210;53.370;6.770;2023-03-01T10:50:20;21.17;;;14.48;;
48849;SDS011;63210;53.370;6.770;2023-03-01T10:52:55;23.20;;;14.95;;
48849;SDS011;63210;53.370;6.770;2023-03-01T10:57:50;13.38;;;9.10;;
48849;SDS011;63210;53.370;6.770;2023-03-01T11:00:52;12.27;;;9.07;;
48849;SDS011;63210;53.370;6.770;2023-03-01T11:05:57;14.35;;;9.98;;
48849;SDS011;63210;53.370;6.770;2023-03-01T11:08:35;15.57;;;9.10;;
48849;SDS011;63210;53.370;6.770;2023-03-01T11:16:24;16.35;;;9.82;;
48849;SDS011;63210;53.370;6.770;2023-03-01T11:21:33;12.93;;;8.30;;
48849;SDS011;63210;53.370;6.770;2023-03-01T11:24:18;9.50;;;7.20;;
48849;SDS011;63210;53.370;6.770;2023-03-01T11:26:49;9.23;;;6.10;;
48849;SDS011;63210;53.370;6.770;2023-03-01T11:31:47;10.27;;;7.82;;
48849;SDS011;63210;53.370;6.770;2023-03-01T11:34:21;12.70;;;6.68;;
48849;SDS011;63210;53.370;6.770;2023-03-01T11:36:52;11.55;;;8.82;;
48849;SDS011;63210;53.370;6.770;2023-03-01T11:39:29;10.60;;;6.40;;
48849;SDS011;63210;53.370;6.770;2023-03-01T11:42:03;8.40;;;6.18;;
48849;SDS011;63210;53.370;6.770;2023-03-01T11:44:37;9.00;;;7.50;;
48849;SDS011;63210;53.370;6.770;2023-03-01T11:47:08;11.88;;;8.27;;
48849;SDS011;63210;53.370;6.770;2023-03-01T12:10:53;13.52;;;9.65;;
48849;SDS011;63210;53.370;6.770;2023-03-01T12:13:35;10.43;;;8.85;;
48849;SDS011;63210;53.370;6.770;2023-03-01T12:16:19;10.27;;;8.93;;
48849;SDS011;63210;53.370;6.770;2023-03-01T12:40:31;12.52;;;9.48;;
48849;SDS011;63210;53.370;6.770;2023-03-01T12:45:54;13.32;;;8.85;;
48849;SDS011;63210;53.370;6.770;2023-03-01T12:50:51;14.48;;;8.35;;
48849;SDS011;63210;53.370;6.770;2023-03-01T12:56:00;14.10;;;8.32;;
48849;SDS011;63210;53.370;6.770;2023-03-01T12:58:32;13.38;;;8.55;;
48849;SDS011;63210;53.370;6.770;2023-03-01T13:04:06;11.07;;;8.52;;
48849;SDS011;63210;53.370;6.770;2023-03-01T13:11:41;10.82;;;8.55;;
48849;SDS011;63210;53.370;6.770;2023-03-01T13:16:54;12.02;;;8.27;;
48849;SDS011;63210;53.370;6.770;2023-03-01T13:19:22;12.82;;;8.02;;
48849;SDS011;63210;53.370;6.770;2023-03-01T13:21:53;11.98;;;7.88;;
48849;SDS011;63210;53.370;6.770;2023-03-01T13:29:45;10.93;;;7.47;;
48849;SDS011;63210;53.370;6.770;2023-03-01T13:32:29;12.23;;;9.95;;
48849;SDS011;63210;53.370;6.770;2023-03-01T13:35:42;13.57;;;9.68;;
48849;SDS011;63210;53.370;6.770;2023-03-01T13:37:50;11.90;;;8.48;;
48849;SDS011;63210;53.370;6.770;2023-03-01T13:43:30;10.48;;;8.18;;
48849;SDS011;63210;53.370;6.770;2023-03-01T13:45:39;13.13;;;9.07;;
48849;SDS011;63210;53.370;6.770;2023-03-01T13:48:11;13.77;;;9.07;;
48849;SDS011;63210;53.370;6.770;2023-03-01T13:50:46;9.75;;;7.82;;
48849;SDS011;63210;53.370;6.770;2023-03-01T13:53:15;13.05;;;9.20;;
48849;SDS011;63210;53.370;6.770;2023-03-01T13:55:48;13.13;;;9.73;;
48849;SDS011;63210;53.370;6.770;2023-03-01T13:58:16;13.55;;;9.48;;
48849;SDS011;63210;53.370;6.770;2023-03-01T14:00:44;12.88;;;9.50;;
48849;SDS011;63210;53.370;6.770;2023-03-01T14:08:33;13.55;;;10.70;;
48849;SDS011;63210;53.370;6.770;2023-03-01T14:11:05;12.52;;;9.52;;
48849;SDS011;63210;53.370;6.770;2023-03-01T14:16:39;15.55;;;11.40;;
48849;SDS011;63210;53.370;6.770;2023-03-01T14:21:32;13.45;;;10.35;;
48849;SDS011;63210;53.370;6.770;2023-03-01T14:23:58;10.15;;;6.47;;
48849;SDS011;63210;53.370;6.770;2023-03-01T14:26:24;14.88;;;9.77;;
48849;SDS011;63210;53.370;6.770;2023-03-01T14:28:49;11.32;;;7.93;;
48849;SDS011;63210;53.370;6.770;2023-03-01T14:31:38;13.38;;;9.75;;
48849;SDS011;63210;53.370;6.770;2023-03-01T14:34:04;13.57;;;9.13;;
48849;SDS011;63210;53.370;6.770;2023-03-01T14:36:30;15.75;;;11.82;;
48849;SDS011;63210;53.370;6.770;2023-03-01T14:39:02;16.20;;;10.32;;
48849;SDS011;63210;53.370;6.770;2023-03-01T14:41:40;15.40;;;10.13;;
48849;SDS011;63210;53.370;6.770;2023-03-01T14:44:22;13.43;;;10.15;;
48849;SDS011;63210;53.370;6.770;2023-03-01T14:46:54;14.68;;;9.90;;
48849;SDS011;63210;53.370;6.770;2023-03-01T14:49:24;14.13;;;9.73;;
48849;SDS011;63210;53.370;6.770;2023-03-01T14:51:57;16.85;;;10.68;;
48849;SDS011;63210;53.370;6.770;2023-03-01T14:54:40;15.65;;;11.55;;
48849;SDS011;63210;53.370;6.770;2023-03-01T14:57:12;13.95;;;8.13;;
48849;SDS011;63210;53.370;6.770;2023-03-01T14:59:41;14.52;;;10.75;;
48849;SDS011;63210;53.370;6.770;2023-03-01T15:02:15;14.40;;;10.98;;
48849;SDS011;63210;53.370;6.770;2023-03-01T15:04:42;15.23;;;11.38;;
48849;SDS011;63210;53.370;6.770;2023-03-01T15:07:12;20.27;;;13.25;;
48849;SDS011;63210;53.370;6.770;2023-03-01T15:09:39;13.40;;;10.73;;
48849;SDS011;63210;53.370;6.770;2023-03-01T15:14:52;13.80;;;11.13;;
48849;SDS011;63210;53.370;6.770;2023-03-01T15:17:31;17.02;;;12.50;;
48849;SDS011;63210;53.370;6.770;2023-03-01T15:19:57;18.58;;;12.63;;
48849;SDS011;63210;53.370;6.770;2023-03-01T15:22:26;18.83;;;12.82;;
48849;SDS011;63210;53.370;6.770;2023-03-01T15:24:52;17.85;;;12.98;;
48849;SDS011;63210;53.370;6.770;2023-03-01T15:27:39;23.30;;;13.25;;
48849;SDS011;63210;53.370;6.770;2023-03-01T15:30:13;16.52;;;11.95;;
48849;SDS011;63210;53.370;6.770;2023-03-01T15:32:41;21.85;;;12.68;;
48849;SDS011;63210;53.370;6.770;2023-03-01T15:37:51;17.05;;;11.65;;
48849;SDS011;63210;53.370;6.770;2023-03-01T15:42:45;15.20;;;9.82;;
48849;SDS011;63210;53.370;6.770;2023-03-01T15:45:22;20.38;;;12.10;;
48849;SDS011;63210;53.370;6.770;2023-03-01T15:47:59;18.50;;;12.00;;
48849;SDS011;63210;53.370;6.770;2023-03-01T15:50:35;15.77;;;10.73;;
48849;SDS011;63210;53.370;6.770;2023-03-01T15:53:01;15.65;;;10.00;;
48849;SDS011;63210;53.370;6.770;2023-03-01T15:55:30;17.77;;;12.77;;
48849;SDS011;63210;53.370;6.770;2023-03-01T15:57:59;19.20;;;11.68;;
48849;SDS011;63210;53.370;6.770;2023-03-01T16:00:45;16.08;;;10.57;;
48849;SDS011;63210;53.370;6.770;2023-03-01T16:03:13;13.93;;;11.18;;
48849;SDS011;63210;53.370;6.770;2023-03-01T16:05:46;14.18;;;10.45;;
48849;SDS011;63210;53.370;6.770;2023-03-01T16:08:20;15.02;;;9.95;;
48849;SDS011;63210;53.370;6.770;2023-03-01T16:10:46;14.00;;;10.07;;
48849;SDS011;63210;53.370;6.770;2023-03-01T16:13:14;18.02;;;11.48;;
48849;SDS011;63210;53.370;6.770;2023-03-01T16:15:43;14.65;;;11.15;;
48849;SDS011;63210;53.370;6.770;2023-03-01T16:18:08;18.92;;;11.73;;
48849;SDS011;63210;53.370;6.770;2023-03-01T16:20:36;14.18;;;10.77;;
48849;SDS011;63210;53.370;6.770;2023-03-01T16:23:02;14.73;;;10.45;;
48849;SDS011;63210;53.370;6.770;2023-03-01T16:25:29;17.75;;;10.38;;
48849;SDS011;63210;53.370;6.770;2023-03-01T16:27:55;13.57;;;8.38;;
48849;SDS011;63210;53.370;6.770;2023-03-01T16:30:21;17.40;;;10.60;;
48849;SDS011;63210;53.370;6.770;2023-03-01T16:32:50;14.27;;;10.18;;
48849;SDS011;63210;53.370;6.770;2023-03-01T16:35:16;11.35;;;7.38;;
48849;SDS011;63210;53.370;6.770;2023-03-01T16:37:42;15.07;;;10.35;;
48849;SDS011;63210;53.370;6.770;2023-03-01T16:40:16;15.32;;;11.02;;
48849;SDS011;63210;53.370;6.770;2023-03-01T16:42:45;16.30;;;11.50;;
48849;SDS011;63210;53.370;6.770;2023-03-01T16:45:13;15.70;;;11.20;;
48849;SDS011;63210;53.370;6.770;2023-03-01T16:47:38;14.02;;;10.75;;
48849;SDS011;63210;53.370;6.770;2023-03-01T16:50:03;13.73;;;10.63;;
48849;SDS011;63210;53.370;6.770;2023-03-01T16:52:29;12.20;;;9.30;;
48849;SDS011;63210;53.370;6.770;2023-03-01T16:54:54;12.07;;;9.15;;
48849;SDS011;63210;53.370;6.770;2023-03-01T16:57:20;11.50;;;8.75;;
48849;SDS011;63210;53.370;6.770;2023-03-01T16:59:45;13.75;;;9.32;;
48849;SDS011;63210;53.370;6.770;2023-03-01T17:02:11;9.82;;;8.82;;
48849;SDS011;63210;53.370;6.770;2023-03-01T17:04:37;13.95;;;9.38;;
48849;SDS011;63210;53.370;6.770;2023-03-01T17:07:03;14.05;;;9.20;;
48849;SDS011;63210;53.370;6.770;2023-03-01T17:09:28;11.25;;;9.02;;
48849;SDS011;63210;53.370;6.770;2023-03-01T17:11:54;11.25;;;8.65;;
48849;SDS011;63210;53.370;6.770;2023-03-01T17:14:22;13.68;;;10.02;;
48849;SDS011;63210;53.370;6.770;2023-03-01T17:16:48;13.27;;;10.15;;
48849;SDS011;63210;53.370;6.770;2023-03-01T17:19:26;15.40;;;9.88;;
48849;SDS011;63210;53.370;6.770;2023-03-01T17:21:59;13.68;;;10.02;;
48849;SDS011;63210;53.370;6.770;2023-03-01T17:24:27;11.45;;;9.05;;
48849;SDS011;63210;53.370;6.770;2023-03-01T17:26:54;15.70;;;8.77;;
48849;SDS011;63210;53.370;6.770;2023-03-01T17:29:19;14.57;;;9.95;;